createdAt,value
2017-10-05T00:01:06.240Z,16.40
2017-10-05T00:03:35.362Z,9.40
2017-10-05T00:06:04.624Z,7.63
2017-10-05T00:08:33.380Z,13.20
2017-10-05T00:11:01.957Z,13.90
2017-10-05T00:13:30.307Z,8.73
2017-10-05T00:15:59.163Z,12.80
2017-10-05T00:18:28.326Z,18.20
2017-10-05T00:20:56.874Z,21.20
2017-10-05T00:23:25.601Z,15.23
2017-10-05T00:25:53.991Z,21.43
2017-10-05T00:28:22.352Z,25.20
2017-10-05T00:30:50.975Z,17.80
2017-10-05T00:33:19.654Z,18.20
2017-10-05T00:35:49.498Z,20.30
2017-10-05T00:38:18.611Z,14.73
2017-10-05T00:40:46.993Z,15.60
2017-10-05T00:43:17.115Z,19.33
2017-10-05T00:45:46.304Z,20.30
2017-10-05T00:48:15.499Z,17.27
2017-10-05T00:50:43.862Z,11.80
2017-10-05T00:53:12.290Z,20.60
2017-10-05T00:55:41.080Z,20.03
2017-10-05T00:58:09.409Z,19.37
2017-10-05T01:00:37.762Z,19.13
2017-10-05T01:03:06.137Z,16.53
2017-10-05T01:05:34.486Z,15.50
2017-10-05T01:08:02.909Z,20.30
2017-10-05T01:10:31.712Z,16.90
2017-10-05T01:13:00.468Z,20.40
2017-10-05T01:15:28.830Z,16.93
2017-10-05T01:17:57.606Z,21.00
2017-10-05T01:20:25.963Z,17.20
2017-10-05T01:22:54.311Z,22.40
2017-10-05T01:25:22.691Z,13.17
2017-10-05T01:27:51.405Z,26.23
2017-10-05T01:30:20.514Z,21.83
2017-10-05T01:32:49.482Z,19.90
2017-10-05T01:35:18.937Z,19.83
2017-10-05T01:37:47.539Z,22.83
2017-10-05T01:40:16.299Z,11.90
2017-10-05T01:42:44.634Z,17.67
2017-10-05T01:45:13.009Z,15.30
2017-10-05T01:47:41.393Z,22.90
2017-10-05T01:50:09.748Z,14.07
2017-10-05T01:52:39.019Z,14.53
2017-10-05T01:55:07.619Z,23.23
2017-10-05T01:57:36.657Z,12.30
2017-10-05T02:00:06.299Z,17.83
2017-10-05T02:02:34.783Z,21.80
2017-10-05T02:05:03.126Z,17.90
2017-10-05T02:07:31.473Z,19.17
2017-10-05T02:09:59.953Z,15.50
2017-10-05T02:12:28.321Z,16.43
2017-10-05T02:14:56.739Z,34.97
2017-10-05T02:17:26.803Z,16.17
2017-10-05T02:19:55.143Z,12.83
2017-10-05T02:22:24.253Z,35.33
2017-10-05T02:24:54.843Z,15.53
2017-10-05T02:27:23.186Z,19.83
2017-10-05T02:29:52.331Z,15.87
2017-10-05T02:32:22.163Z,13.23
2017-10-05T02:34:50.536Z,22.37
2017-10-05T02:37:18.890Z,19.80
2017-10-05T02:39:47.278Z,23.30
2017-10-05T02:42:16.414Z,24.80
2017-10-05T02:44:46.329Z,17.83
2017-10-05T02:47:16.131Z,21.00
2017-10-05T02:49:45.242Z,15.47
2017-10-05T02:52:13.595Z,22.53
2017-10-05T02:54:42.786Z,18.43
2017-10-05T02:57:12.260Z,18.63
2017-10-05T02:59:40.607Z,15.63
2017-10-05T03:02:08.972Z,21.33
2017-10-05T03:04:38.528Z,17.13
2017-10-05T03:07:06.869Z,20.27
2017-10-05T03:09:35.580Z,23.10
2017-10-05T03:12:03.913Z,21.03
2017-10-05T03:14:33.040Z,18.57
2017-10-05T03:17:01.645Z,14.50
2017-10-05T03:19:30.450Z,16.70
2017-10-05T03:21:59.425Z,17.60
2017-10-05T03:24:27.812Z,15.90
2017-10-05T03:26:56.164Z,17.23
2017-10-05T03:29:24.503Z,12.30
2017-10-05T03:31:53.653Z,16.73
2017-10-05T03:34:22.886Z,15.90
2017-10-05T03:36:51.249Z,18.67
2017-10-05T03:39:19.639Z,16.30
2017-10-05T03:41:48.012Z,19.73
2017-10-05T03:44:17.270Z,17.47
2017-10-05T03:46:46.845Z,14.83
2017-10-05T03:49:15.527Z,16.63
2017-10-05T03:51:45.206Z,14.97
2017-10-05T03:54:13.631Z,17.73
2017-10-05T03:56:43.534Z,12.30
2017-10-05T03:59:11.883Z,12.83
2017-10-05T04:01:41.040Z,15.73
2017-10-05T04:04:09.773Z,20.10
2017-10-05T04:06:38.178Z,23.97
2017-10-05T04:09:07.469Z,13.93
2017-10-05T04:11:35.857Z,16.67
2017-10-05T04:14:04.202Z,16.50
2017-10-05T04:16:32.790Z,18.90
2017-10-05T04:19:01.297Z,15.33
2017-10-05T04:21:29.642Z,20.60
2017-10-05T04:23:58.629Z,19.83
2017-10-05T04:26:27.898Z,14.53
2017-10-05T04:28:56.238Z,15.10
2017-10-05T04:31:25.008Z,16.57
2017-10-05T04:33:53.442Z,28.07
2017-10-05T04:36:22.548Z,20.67
2017-10-05T04:38:52.544Z,13.83
2017-10-05T04:41:20.941Z,15.80
2017-10-05T04:43:51.392Z,12.87
2017-10-05T04:46:19.922Z,11.87
2017-10-05T04:48:49.132Z,16.23
2017-10-05T04:51:18.525Z,14.70
2017-10-05T04:53:47.726Z,17.80
2017-10-05T04:56:16.871Z,12.00
2017-10-05T04:58:45.919Z,12.43
2017-10-05T05:01:16.071Z,14.10
2017-10-05T05:03:45.051Z,16.27
2017-10-05T05:06:14.185Z,13.23
2017-10-05T05:08:43.328Z,11.47
2017-10-05T05:11:11.845Z,12.10
2017-10-05T05:13:40.977Z,11.60
2017-10-05T05:16:10.321Z,11.33
2017-10-05T05:18:40.390Z,13.77
2017-10-05T05:21:09.775Z,15.33
2017-10-05T05:23:38.831Z,14.73
2017-10-05T05:26:07.677Z,8.63
2017-10-05T05:28:36.373Z,19.97
2017-10-05T05:31:04.900Z,11.07
2017-10-05T05:33:34.029Z,12.43
2017-10-05T05:36:02.873Z,9.07
2017-10-05T05:38:31.284Z,13.50
2017-10-05T05:40:59.626Z,9.53
2017-10-05T05:43:28.149Z,9.43
2017-10-05T05:45:56.808Z,9.07
2017-10-05T05:48:25.169Z,9.63
2017-10-05T05:50:53.571Z,8.23
2017-10-05T05:53:23.992Z,12.87
2017-10-05T05:55:52.387Z,11.90
2017-10-05T05:58:22.190Z,11.80
2017-10-05T06:00:50.644Z,10.00
2017-10-05T06:03:20.447Z,8.17
2017-10-05T06:05:49.049Z,7.27
2017-10-05T06:08:17.546Z,7.10
2017-10-05T06:10:46.170Z,6.30
2017-10-05T06:13:15.265Z,6.07
2017-10-05T06:15:43.967Z,6.23
2017-10-05T06:18:13.083Z,5.53
2017-10-05T06:20:41.431Z,5.43
2017-10-05T06:23:11.102Z,4.37
2017-10-05T06:25:39.507Z,4.60
2017-10-05T06:28:07.863Z,4.57
2017-10-05T06:30:36.281Z,4.40
2017-10-05T06:33:04.609Z,3.80
2017-10-05T06:35:33.655Z,4.00
2017-10-05T06:38:02.000Z,3.10
2017-10-05T06:40:31.588Z,3.10
2017-10-05T06:42:59.922Z,5.10
2017-10-05T06:45:28.288Z,3.53
2017-10-05T06:47:56.669Z,2.37
2017-10-05T06:50:25.020Z,5.80
2017-10-05T06:52:53.506Z,6.33
2017-10-05T06:55:21.854Z,2.33
2017-10-05T06:57:50.412Z,10.90
2017-10-05T07:00:19.626Z,3.60
2017-10-05T07:02:48.003Z,2.10
2017-10-05T07:05:18.935Z,2.00
2017-10-05T07:07:47.320Z,1.80
2017-10-05T07:10:16.093Z,1.57
2017-10-05T07:12:45.986Z,1.63
2017-10-05T07:15:16.222Z,1.60
2017-10-05T07:17:44.553Z,1.37
2017-10-05T07:20:13.680Z,3.07
2017-10-05T07:22:43.945Z,1.37
2017-10-05T07:25:13.179Z,1.40
2017-10-05T07:27:42.159Z,1.80
2017-10-05T07:30:10.873Z,1.60
2017-10-05T07:32:39.992Z,2.03
2017-10-05T07:35:08.971Z,1.50
2017-10-05T07:37:38.172Z,1.30
2017-10-05T07:40:07.202Z,1.07
2017-10-05T07:42:36.233Z,4.10
2017-10-05T07:45:05.534Z,1.27
2017-10-05T07:47:34.184Z,2.70
2017-10-05T07:50:02.562Z,1.30
2017-10-05T07:52:31.964Z,1.30
2017-10-05T07:55:01.022Z,1.03
2017-10-05T07:57:30.132Z,1.13
2017-10-05T07:59:58.902Z,1.20
2017-10-05T08:02:28.828Z,1.50
2017-10-05T08:04:57.164Z,3.47
2017-10-05T08:07:26.330Z,0.90
2017-10-05T08:09:54.739Z,1.20
2017-10-05T08:12:23.606Z,1.07
2017-10-05T08:14:52.745Z,1.80
2017-10-05T08:17:21.563Z,1.23
2017-10-05T08:19:49.937Z,1.40
2017-10-05T08:22:18.998Z,1.40
2017-10-05T08:24:47.365Z,1.30
2017-10-05T08:27:15.772Z,1.10
2017-10-05T08:29:44.181Z,1.47
2017-10-05T08:32:13.331Z,1.90
2017-10-05T08:34:41.683Z,1.30
2017-10-05T08:37:10.926Z,1.80
2017-10-05T08:39:39.926Z,1.50
2017-10-05T08:42:09.220Z,1.47
2017-10-05T08:44:38.762Z,1.70
2017-10-05T08:47:07.834Z,1.70
2017-10-05T08:49:36.195Z,1.60
2017-10-05T08:52:04.577Z,1.80
2017-10-05T08:54:32.935Z,1.40
2017-10-05T08:57:01.954Z,1.73
2017-10-05T08:59:31.429Z,2.73
2017-10-05T09:01:59.768Z,1.87
2017-10-05T09:04:28.527Z,1.67
2017-10-05T09:06:58.168Z,5.90
2017-10-05T09:09:26.513Z,1.77
2017-10-05T09:11:55.460Z,1.93
2017-10-05T09:14:25.450Z,1.63
2017-10-05T09:16:53.825Z,1.20
2017-10-05T09:19:22.939Z,1.83
2017-10-05T09:21:51.851Z,1.17
2017-10-05T09:24:20.203Z,1.40
2017-10-05T09:26:49.355Z,1.70
2017-10-05T09:29:18.544Z,1.53
2017-10-05T09:31:47.912Z,2.57
2017-10-05T09:34:16.976Z,1.60
2017-10-05T09:36:45.347Z,1.40
2017-10-05T09:39:14.459Z,1.27
2017-10-05T09:41:44.909Z,1.70
2017-10-05T09:44:13.284Z,1.40
2017-10-05T09:46:41.635Z,1.33
2017-10-05T09:49:10.006Z,1.33
2017-10-05T09:51:40.883Z,1.40
2017-10-05T09:54:09.278Z,1.70
2017-10-05T09:56:37.847Z,1.23
2017-10-05T09:59:06.228Z,1.40
2017-10-05T10:01:34.560Z,1.80
2017-10-05T10:04:03.153Z,1.30
2017-10-05T10:06:32.290Z,1.00
2017-10-05T10:09:01.768Z,1.90
2017-10-05T10:11:31.143Z,1.50
2017-10-05T10:13:59.630Z,2.50
2017-10-05T10:16:28.942Z,1.13
2017-10-05T10:18:58.807Z,1.20
2017-10-05T10:21:27.488Z,1.90
2017-10-05T10:23:57.008Z,0.97
2017-10-05T10:26:25.853Z,1.13
2017-10-05T10:28:56.668Z,1.23
2017-10-05T10:31:25.312Z,1.13
2017-10-05T10:33:54.474Z,1.43
2017-10-05T10:36:23.645Z,9.00
2017-10-05T10:38:51.990Z,1.13
2017-10-05T10:41:21.100Z,1.10
2017-10-05T10:43:49.555Z,3.33
2017-10-05T10:46:18.786Z,1.10
2017-10-05T10:48:47.123Z,1.30
2017-10-05T10:51:16.440Z,3.20
2017-10-05T10:53:44.807Z,3.10
2017-10-05T10:56:13.137Z,0.97
2017-10-05T10:58:42.338Z,6.77
2017-10-05T11:01:11.529Z,1.20
2017-10-05T11:03:40.665Z,2.80
2017-10-05T11:06:09.039Z,7.07
2017-10-05T11:08:37.753Z,3.60
2017-10-05T11:11:07.432Z,3.57
2017-10-05T11:13:36.060Z,3.17
2017-10-05T11:16:04.444Z,8.93
2017-10-05T11:18:33.012Z,6.93
2017-10-05T11:21:01.527Z,4.10
2017-10-05T11:23:31.440Z,3.03
2017-10-05T11:25:59.773Z,3.10
2017-10-05T11:28:28.919Z,4.40
2017-10-05T11:30:57.290Z,2.33
2017-10-05T11:33:26.248Z,8.67
2017-10-05T11:35:55.146Z,6.47
2017-10-05T11:38:24.470Z,5.87
2017-10-05T11:40:52.842Z,6.23
2017-10-05T11:43:21.721Z,10.10
2017-10-05T11:45:50.047Z,5.10
2017-10-05T11:48:18.405Z,7.90
2017-10-05T11:50:46.775Z,2.80
2017-10-05T11:53:16.550Z,4.60
2017-10-05T11:55:45.907Z,2.00
2017-10-05T11:58:14.262Z,0.70
2017-10-05T12:00:42.915Z,0.70
2017-10-05T12:03:11.915Z,0.60
2017-10-05T12:05:40.359Z,7.40
2017-10-05T12:08:09.794Z,3.03
2017-10-05T12:10:38.581Z,4.57
2017-10-05T12:13:07.657Z,7.83
2017-10-05T12:15:37.285Z,0.97
2017-10-05T12:18:05.662Z,5.33
2017-10-05T12:20:34.782Z,0.70
2017-10-05T12:23:03.727Z,0.50
2017-10-05T12:25:32.837Z,5.60
2017-10-05T12:28:02.092Z,1.17
2017-10-05T12:30:30.972Z,0.70
2017-10-05T12:33:00.707Z,1.27
2017-10-05T12:35:29.114Z,3.80
2017-10-05T12:37:58.205Z,0.73
2017-10-05T12:40:27.701Z,3.20
2017-10-05T12:42:56.080Z,6.33
2017-10-05T12:45:24.429Z,0.90
2017-10-05T12:47:52.780Z,2.70
2017-10-05T12:50:21.233Z,1.47
2017-10-05T12:52:49.646Z,1.47
2017-10-05T12:55:18.008Z,1.17
2017-10-05T12:57:46.376Z,0.50
2017-10-05T13:00:15.729Z,0.60
2017-10-05T13:02:44.074Z,2.93
2017-10-05T13:05:13.825Z,3.57
2017-10-05T13:07:43.208Z,2.20
2017-10-05T13:10:11.542Z,4.10
2017-10-05T13:12:39.979Z,0.97
2017-10-05T13:15:08.333Z,4.03
2017-10-05T13:17:36.672Z,0.70
2017-10-05T13:20:06.520Z,3.97
2017-10-05T13:22:34.857Z,3.00
2017-10-05T13:25:03.325Z,1.27
2017-10-05T13:27:31.691Z,0.80
2017-10-05T13:30:00.641Z,1.27
2017-10-05T13:32:29.678Z,15.10
2017-10-05T13:34:58.362Z,0.83
2017-10-05T13:37:27.045Z,0.60
2017-10-05T13:39:55.393Z,0.70
2017-10-05T13:42:23.745Z,1.90
2017-10-05T13:44:53.786Z,1.87
2017-10-05T13:47:22.346Z,1.43
2017-10-05T13:49:51.478Z,1.70
2017-10-05T13:52:19.815Z,1.73
2017-10-05T13:54:49.365Z,2.40
2017-10-05T13:57:17.943Z,1.17
2017-10-05T13:59:47.885Z,1.80
2017-10-05T14:02:16.223Z,1.13
2017-10-05T14:04:45.363Z,0.93
2017-10-05T14:07:13.802Z,1.00
2017-10-05T14:09:42.181Z,1.80
2017-10-05T14:12:11.332Z,5.53
2017-10-05T14:14:40.120Z,9.90
2017-10-05T14:17:08.459Z,1.63
2017-10-05T14:19:37.003Z,1.43
2017-10-05T14:22:05.609Z,1.13
2017-10-05T14:24:34.005Z,2.50
2017-10-05T14:27:02.403Z,1.30
2017-10-05T14:29:30.722Z,1.30
2017-10-05T14:31:59.879Z,3.47
2017-10-05T14:34:28.254Z,4.30
2017-10-05T14:36:56.816Z,3.10
2017-10-05T14:39:25.173Z,4.07
2017-10-05T14:41:54.494Z,1.77
2017-10-05T14:44:22.896Z,2.97
2017-10-05T14:46:52.231Z,4.37
2017-10-05T14:49:21.930Z,1.87
2017-10-05T14:51:50.287Z,6.33
2017-10-05T14:54:18.616Z,1.93
2017-10-05T14:56:47.296Z,2.53
2017-10-05T14:59:15.630Z,3.57
2017-10-05T15:01:45.325Z,4.73
2017-10-05T15:04:14.514Z,2.73
2017-10-05T15:06:43.616Z,1.50
2017-10-05T15:09:13.172Z,7.23
2017-10-05T15:11:42.473Z,3.10
2017-10-05T15:14:11.033Z,3.00
2017-10-05T15:16:39.863Z,5.23
2017-10-05T15:19:09.007Z,4.63
2017-10-05T15:21:37.346Z,1.27
2017-10-05T15:24:05.694Z,4.60
2017-10-05T15:26:36.109Z,2.33
2017-10-05T15:29:05.086Z,1.57
2017-10-05T15:31:33.660Z,6.37
2017-10-05T15:34:02.471Z,5.97
2017-10-05T15:36:31.460Z,1.50
2017-10-05T15:38:59.849Z,2.50
2017-10-05T15:41:29.028Z,7.13
2017-10-05T15:43:58.292Z,12.07
2017-10-05T15:46:27.439Z,5.60
2017-10-05T15:48:55.874Z,11.33
2017-10-05T15:51:24.235Z,5.23
2017-10-05T15:53:52.884Z,5.10
2017-10-05T15:56:22.082Z,1.60
2017-10-05T15:58:50.466Z,5.17
2017-10-05T16:01:19.249Z,8.87
2017-10-05T16:03:48.468Z,7.67
2017-10-05T16:06:17.237Z,7.30
2017-10-05T16:08:46.302Z,11.40
2017-10-05T16:11:16.634Z,5.73
2017-10-05T16:13:44.989Z,6.20
2017-10-05T16:16:13.877Z,8.43
2017-10-05T16:18:42.232Z,5.80
2017-10-05T16:21:11.829Z,12.07
2017-10-05T16:23:40.335Z,10.80
2017-10-05T16:26:12.182Z,12.67
2017-10-05T16:28:40.534Z,6.73
2017-10-05T16:31:08.950Z,4.00
2017-10-05T16:33:37.475Z,9.97
2017-10-05T16:36:07.211Z,7.67
2017-10-05T16:38:35.715Z,15.50
2017-10-05T16:41:04.099Z,7.03
2017-10-05T16:43:32.447Z,9.77
2017-10-05T16:46:01.457Z,6.10
2017-10-05T16:48:31.026Z,6.10
2017-10-05T16:50:59.377Z,3.37
2017-10-05T16:53:28.552Z,7.20
2017-10-05T16:55:57.402Z,8.33
2017-10-05T16:58:26.220Z,5.27
2017-10-05T17:00:54.558Z,6.53
2017-10-05T17:03:23.704Z,6.93
2017-10-05T17:05:52.522Z,16.40
2017-10-05T17:08:20.872Z,12.47
2017-10-05T17:10:49.827Z,17.43
2017-10-05T17:13:19.114Z,11.03
2017-10-05T17:15:48.229Z,12.57
2017-10-05T17:18:17.610Z,8.97
2017-10-05T17:20:46.665Z,12.47
2017-10-05T17:23:15.528Z,13.53
2017-10-05T17:25:44.805Z,15.63
2017-10-05T17:28:13.927Z,12.23
2017-10-05T17:30:44.561Z,15.13
2017-10-05T17:33:12.945Z,7.97
2017-10-05T17:35:41.296Z,9.43
2017-10-05T17:38:09.667Z,8.57
2017-10-05T17:40:38.949Z,17.00
2017-10-05T17:43:08.282Z,8.83
2017-10-05T17:45:36.628Z,17.17
2017-10-05T17:48:05.004Z,4.83
2017-10-05T17:50:34.179Z,26.00
2017-10-05T17:53:02.554Z,11.13
2017-10-05T17:55:31.154Z,7.30
2017-10-05T17:57:59.677Z,7.20
2017-10-05T18:00:28.023Z,6.23
2017-10-05T18:02:57.026Z,6.27
2017-10-05T18:05:26.558Z,15.47
2017-10-05T18:07:54.903Z,9.30
2017-10-05T18:10:23.283Z,8.87
2017-10-05T18:12:51.844Z,12.33
2017-10-05T18:15:20.250Z,5.53
2017-10-05T18:17:48.998Z,6.60
2017-10-05T18:20:17.343Z,10.77
2017-10-05T18:22:46.625Z,15.27
2017-10-05T18:25:15.580Z,13.07
2017-10-05T18:27:44.486Z,29.67
2017-10-05T18:30:12.842Z,15.10
2017-10-05T18:32:41.208Z,20.50
2017-10-05T18:35:10.746Z,16.50
2017-10-05T18:37:39.848Z,12.30
2017-10-05T18:40:08.549Z,19.47
2017-10-05T18:42:38.176Z,15.23
2017-10-05T18:45:07.636Z,19.80
2017-10-05T18:47:36.186Z,17.50
2017-10-05T18:50:05.486Z,24.97
2017-10-05T18:52:33.845Z,10.23
2017-10-05T18:55:02.988Z,11.33
2017-10-05T18:57:31.390Z,17.23
2017-10-05T18:59:59.751Z,8.57
2017-10-05T19:02:28.167Z,15.13
2017-10-05T19:04:56.594Z,8.87
2017-10-05T19:07:24.941Z,11.90
2017-10-05T19:09:53.428Z,17.03
2017-10-05T19:12:22.449Z,13.17
2017-10-05T19:14:50.793Z,14.80
2017-10-05T19:17:20.996Z,17.07
2017-10-05T19:19:49.406Z,15.53
2017-10-05T19:22:17.761Z,24.27
2017-10-05T19:24:47.142Z,19.63
2017-10-05T19:27:15.520Z,23.70
2017-10-05T19:29:44.553Z,16.33
2017-10-05T19:32:14.064Z,7.97
2017-10-05T19:34:42.405Z,17.70
2017-10-05T19:37:12.449Z,16.23
2017-10-05T19:39:43.412Z,16.43
2017-10-05T19:42:11.779Z,26.53
2017-10-05T19:44:40.912Z,16.20
2017-10-05T19:47:10.070Z,14.90
2017-10-05T19:49:39.370Z,14.40
2017-10-05T19:52:07.936Z,4.10
2017-10-05T19:54:36.805Z,14.97
2017-10-05T19:57:05.658Z,12.67
2017-10-05T19:59:34.028Z,13.40
2017-10-05T20:02:02.820Z,19.00
2017-10-05T20:04:32.002Z,32.30
2017-10-05T20:07:01.855Z,17.20
2017-10-05T20:09:30.846Z,23.10
2017-10-05T20:11:59.227Z,20.83
2017-10-05T20:14:27.587Z,17.33
2017-10-05T20:17:07.567Z,34.03
